Latest Weather Observations for South Channel Island

IDV60801

Issued at 4:35 pm EDT Saturday 1 November 2014 (issued every 30 minutes, with the page automatically refreshed every 10 minutes)

About weather observations | Map of weather stations | Latest weather observations for VIC | Other Formats
Station Details ID: 086344 Name: SOUTH CHANNEL ISLAND Lat: -38.31 Lon: 144.80 Height: 9.0 m
Data from the previous 72 hours. | See also: Recent months for locations in Victoria
Date/Time
EDT
Temp
°C
App
Temp
°C
Dew
Point
Rel
Hum
%
Delta-T
°C
Wind Press
QNH
hPa
Press
MSL
hPa
Rain
since 9 am
mm
Dir
 
Spd
km/h
Gust
km/h
Spd
kts
Gust
kts
01/04:30pm - - - - - WSW 57 70 31 38 - - -
01/04:08pm - - - - - WSW 61 80 33 43 - - -
01/04:00pm - - - - - WSW 61 78 33 42 - - -
01/03:54pm - - - - - WSW 50 70 27 38 - - -
01/03:30pm - - - - - WSW 56 70 30 38 - - -
01/03:23pm - - - - - WSW 57 65 31 35 - - -
01/03:07pm - - - - - WSW 37 48 20 26 - - -
01/03:00pm - - - - - WSW 56 74 30 40 - - -
01/02:42pm - - - - - WSW 65 83 35 45 - - -
01/02:40pm - - - - - WSW 65 80 35 43 - - -
01/02:31pm - - - - - WSW 46 80 25 43 - - -
01/02:30pm - - - - - WSW 44 56 24 30 - - -
01/02:13pm - - - - - WSW 56 74 30 40 - - -
01/02:00pm - - - - - WSW 56 69 30 37 - - -
01/01:51pm - - - - - SW 56 74 30 40 - - -
01/01:30pm - - - - - SW 59 69 32 37 - - -
01/01:00pm - - - - - SW 52 61 28 33 - - -
01/12:46pm - - - - - SW 44 61 24 33 - - -
01/12:30pm - - - - - W 41 54 22 29 - - -
01/12:00pm - - - - - W 41 54 22 29 - - -
01/11:30am - - - - - WSW 37 52 20 28 - - -
01/11:11am - - - - - WSW 37 43 20 23 - - -
01/11:00am - - - - - W 56 63 30 34 - - -
01/10:57am - - - - - W 32 56 17 30 - - -
01/10:30am - - - - - W 35 41 19 22 - - -
01/10:00am - - - - - WSW 39 46 21 25 - - -
01/09:30am - - - - - WSW 46 57 25 31 - - -
01/09:00am - - - - - WSW 48 57 26 31 - - -
01/08:30am - - - - - SW 54 72 29 39 - - -
01/08:29am - - - - - WSW 54 72 29 39 - - -
01/08:00am - - - - - WSW 52 61 28 33 - - -
01/07:47am - - - - - WSW 44 63 24 34 - - -
01/07:39am - - - - - WSW 35 39 19 21 - - -
01/07:30am - - - - - W 37 43 20 23 - - -
01/07:00am - - - - - WNW 39 46 21 25 - - -
01/06:30am - - - - - WNW 39 46 21 25 - - -
01/06:00am - - - - - W 43 52 23 28 - - -
01/05:30am - - - - - WNW 33 39 18 21 - - -
01/05:00am - - - - - W 26 32 14 17 - - -
01/04:30am - - - - - W 32 39 17 21 - - -
01/04:12am - - - - - W 46 54 25 29 - - -
01/04:00am - - - - - WNW 28 35 15 19 - - -
01/03:30am - - - - - NW 19 20 10 11 - - -
01/03:00am - - - - - N 9 15 5 8 - - -
01/02:00am - - - - - W 20 26 11 14 - - -
01/01:30am - - - - - SW 20 24 11 13 - - -
01/01:00am - - - - - SW 41 50 22 27 - - -
01/12:30am - - - - - SW 32 39 17 21 - - -
01/12:00am - - - - - SW 35 41 19 22 - - -
 
Date/Time
EDT
Temp
°C
App
Temp
°C
Dew
Point
Rel
Hum
%
Delta-T
°C
Wind Press
QNH
hPa
Press
MSL
hPa
Rain
since 9 am
mm
Dir
 
Spd
km/h
Gust
km/h
Spd
kts
Gust
kts
31/11:30pm - - - - - SW 39 50 21 27 - - -
31/11:00pm - - - - - SSW 52 63 28 34 - - -
31/10:30pm - - - - - SW 46 70 25 38 - - -
31/10:27pm - - - - - SW 43 70 23 38 - - -
31/10:25pm - - - - - SW 39 56 21 30 - - -
31/10:00pm - - - - - N 35 37 19 20 - - -
31/09:30pm - - - - - N 32 33 17 18 - - -
31/09:00pm - - - - - N 28 28 15 15 - - -
31/08:30pm - - - - - NNE 32 33 17 18 - - -
31/08:00pm - - - - - NNE 24 26 13 14 - - -
31/07:30pm - - - - - NNE 26 30 14 16 - - -
31/07:00pm - - - - - N 20 22 11 12 - - -
31/06:30pm - - - - - N 26 28 14 15 - - -
31/06:00pm - - - - - N 28 30 15 16 - - -
31/05:30pm - - - - - N 24 30 13 16 - - -
31/05:00pm - - - - - N 20 26 11 14 - - -
31/04:30pm - - - - - N 13 19 7 10 - - -
31/04:00pm - - - - - NNE 19 26 10 14 - - -
31/03:30pm - - - - - NNE 30 32 16 17 - - -
31/03:00pm - - - - - NNE 30 32 16 17 - - -
31/02:30pm - - - - - N 35 39 19 21 - - -
31/02:00pm - - - - - N 39 43 21 23 - - -
31/01:30pm - - - - - NNE 35 39 19 21 - - -
31/01:00pm - - - - - NNE 37 43 20 23 - - -
31/12:30pm - - - - - NNE 28 32 15 17 - - -
31/12:00pm - - - - - NNE 32 35 17 19 - - -
31/11:30am - - - - - NNE 33 37 18 20 - - -
31/11:00am - - - - - NNE 35 41 19 22 - - -
31/10:30am - - - - - NNE 30 32 16 17 - - -
31/10:00am - - - - - NNE 30 32 16 17 - - -
31/09:30am - - - - - NNE 28 32 15 17 - - -
31/09:00am - - - - - NNE 24 28 13 15 - - -
31/08:30am - - - - - NNE 24 28 13 15 - - -
31/08:00am - - - - - NE 28 30 15 16 - - -
31/07:30am - - - - - NE 24 28 13 15 - - -
31/07:00am - - - - - NNE 19 22 10 12 - - -
31/06:30am - - - - - NE 17 19 9 10 - - -
31/06:00am - - - - - NNE 19 22 10 12 - - -
31/05:30am - - - - - NNE 17 19 9 10 - - -
31/05:00am - - - - - NE 15 17 8 9 - - -
31/04:30am - - - - - NNE 15 17 8 9 - - -
31/04:00am - - - - - NE 15 19 8 10 - - -
31/03:30am - - - - - NE 15 17 8 9 - - -
31/03:00am - - - - - NE 17 17 9 9 - - -
31/02:30am - - - - - NE 11 13 6 7 - - -
31/02:00am - - - - - E 11 13 6 7 - - -
31/01:30am - - - - - ESE 9 11 5 6 - - -
31/01:00am - - - - - E 9 11 5 6 - - -
31/12:30am - - - - - SE 9 11 5 6 - - -
31/12:00am - - - - - ESE 13 13 7 7 - - -
 
Date/Time
EDT
Temp
°C
App
Temp
°C
Dew
Point
Rel
Hum
%
Delta-T
°C
Wind Press
QNH
hPa
Press
MSL
hPa
Rain
since 9 am
mm
Dir
 
Spd
km/h
Gust
km/h
Spd
kts
Gust
kts
30/11:30pm - - - - - SSE 13 15 7 8 - - -
30/11:00pm - - - - - SSE 13 17 7 9 - - -
30/10:30pm - - - - - SSE 13 17 7 9 - - -
30/10:00pm - - - - - SE 11 13 6 7 - - -
30/09:30pm - - - - - SE 13 17 7 9 - - -
30/09:00pm - - - - - SSE 15 19 8 10 - - -
30/08:30pm - - - - - SSE 17 22 9 12 - - -
30/08:00pm - - - - - S 26 32 14 17 - - -
30/07:30pm - - - - - S 28 32 15 17 - - -
30/07:00pm - - - - - S 30 33 16 18 - - -
30/06:30pm - - - - - S 32 35 17 19 - - -
30/06:00pm - - - - - S 33 37 18 20 - - -
30/05:30pm - - - - - S 32 35 17 19 - - -
30/05:00pm - - - - - S 33 37 18 20 - - -
30/04:30pm - - - - - S 24 28 13 15 - - -
30/04:00pm - - - - - SSW 28 33 15 18 - - -
30/03:30pm - - - - - SSW 22 28 12 15 - - -
30/03:00pm - - - - - SSW 19 22 10 12 - - -
30/02:30pm - - - - - SSW 15 19 8 10 - - -
30/02:00pm - - - - - SW 17 20 9 11 - - -
30/01:30pm - - - - - SW 15 20 8 11 - - -
30/01:00pm - - - - - SW 20 28 11 15 - - -
30/12:30pm - - - - - SW 24 28 13 15 - - -
30/12:00pm - - - - - WSW 20 26 11 14 - - -
30/11:30am - - - - - W 28 33 15 18 - - -
30/11:00am - - - - - W 28 33 15 18 - - -
30/10:30am - - - - - W 22 28 12 15 - - -
30/10:00am - - - - - WNW 26 30 14 16 - - -
30/09:30am - - - - - WNW 26 30 14 16 - - -
30/09:00am - - - - - WNW 28 33 15 18 - - -
30/08:30am - - - - - WNW 28 32 15 17 - - -
30/08:00am - - - - - WNW 30 33 16 18 - - -
30/07:30am - - - - - WNW 32 35 17 19 - - -
30/07:00am - - - - - WNW 28 32 15 17 - - -
30/06:30am - - - - - WNW 26 30 14 16 - - -
30/06:00am - - - - - NW 26 30 14 16 - - -
30/05:30am - - - - - WNW 28 32 15 17 - - -
30/05:00am - - - - - WNW 28 32 15 17 - - -
30/04:30am - - - - - WNW 26 30 14 16 - - -
30/04:00am - - - - - NW 24 26 13 14 - - -
30/03:30am - - - - - NW 28 32 15 17 - - -
30/03:00am - - - - - WNW 28 32 15 17 - - -
30/02:30am - - - - - NW 28 32 15 17 - - -
30/02:00am - - - - - NW 26 30 14 16 - - -
30/01:30am - - - - - NW 28 32 15 17 - - -
30/01:00am - - - - - WNW 24 30 13 16 - - -
30/12:30am - - - - - NW 19 22 10 12 - - -
30/12:00am - - - - - NW 19 24 10 13 - - -
 
Date/Time
EDT
Temp
°C
App
Temp
°C
Dew
Point
Rel
Hum
%
Delta-T
°C
Wind Press
QNH
hPa
Press
MSL
hPa
Rain
since 9 am
mm
Dir
 
Spd
km/h
Gust
km/h
Spd
kts
Gust
kts
29/11:30pm - - - - - WNW 13 15 7 8 - - -
29/11:00pm - - - - - W 9 11 5 6 - - -
29/10:30pm - - - - - SSW 7 9 4 5 - - -
29/10:00pm - - - - - S 9 11 5 6 - - -
29/09:30pm - - - - - SSW 17 20 9 11 - - -
29/09:00pm - - - - - S 20 26 11 14 - - -
29/08:30pm - - - - - S 20 26 11 14 - - -
29/08:00pm - - - - - S 22 26 12 14 - - -
29/07:30pm - - - - - S 30 33 16 18 - - -
29/07:00pm - - - - - S 30 33 16 18 - - -
29/06:30pm - - - - - S 32 35 17 19 - - -
29/06:00pm - - - - - S 26 30 14 16 - - -
29/05:30pm - - - - - SSW 24 30 13 16 - - -
29/05:00pm - - - - - S 13 20 7 11 - - -

Other Formats:

Comma delimited format used in spreadsheet applications
http://www.bom.gov.au/fwo/IDV60801/IDV60801.94853.axf

JavaScript Object Notation format (JSON) in row-major order
http://www.bom.gov.au/fwo/IDV60801/IDV60801.94853.json